sensor_id;sensor_type;location;lat;lon;timestamp;temperature;humidity
23251;DHT22;11794;49.730;10.088;2023-04-06T00:01:25;0.60;99.90
23251;DHT22;11794;49.730;10.088;2023-04-06T00:03:50;0.60;99.90
23251;DHT22;11794;49.730;10.088;2023-04-06T00:06:16;0.40;99.90
23251;DHT22;11794;49.730;10.088;2023-04-06T00:08:41;0.40;99.90
23251;DHT22;11794;49.730;10.088;2023-04-06T00:11:07;0.30;99.90
23251;DHT22;11794;49.730;10.088;2023-04-06T00:13:33;0.20;99.90
23251;DHT22;11794;49.730;10.088;2023-04-06T00:15:58;0.20;99.90
23251;DHT22;11794;49.730;10.088;2023-04-06T00:18:24;0.10;99.90
23251;DHT22;11794;49.730;10.088;2023-04-06T00:20:49;0.10;99.90
23251;DHT22;11794;49.730;10.088;2023-04-06T00:23:16;0.00;99.90
23251;DHT22;11794;49.730;10.088;2023-04-06T00:25:42;0.00;99.90
23251;DHT22;11794;49.730;10.088;2023-04-06T00:28:07;-0.10;99.90
23251;DHT22;11794;49.730;10.088;2023-04-06T00:30:33;-0.10;99.90
23251;DHT22;11794;49.730;10.088;2023-04-06T00:32:58;-0.10;99.90
23251;DHT22;11794;49.730;10.088;2023-04-06T00:35:25;-0.10;99.90
23251;DHT22;11794;49.730;10.088;2023-04-06T00:37:50;-0.10;99.90
23251;DHT22;11794;49.730;10.088;2023-04-06T00:40:16;0.00;99.90
23251;DHT22;11794;49.730;10.088;2023-04-06T00:42:41;-0.10;99.90
23251;DHT22;11794;49.730;10.088;2023-04-06T00:45:07;-0.10;99.90
23251;DHT22;11794;49.730;10.088;2023-04-06T00:47:33;-0.10;99.90
23251;DHT22;11794;49.730;10.088;2023-04-06T00:49:59;-0.20;99.90
23251;DHT22;11794;49.730;10.088;2023-04-06T00:52:24;-0.30;99.90
23251;DHT22;11794;49.730;10.088;2023-04-06T00:54:50;-0.20;99.90
23251;DHT22;11794;49.730;10.088;2023-04-06T00:57:16;-0.20;99.90
23251;DHT22;11794;49.730;10.088;2023-04-06T00:59:42;-0.30;99.90
23251;DHT22;11794;49.730;10.088;2023-04-06T01:02:08;-0.30;99.90
23251;DHT22;11794;49.730;10.088;2023-04-06T01:04:34;-0.30;99.90
23251;DHT22;11794;49.730;10.088;2023-04-06T01:07:00;-0.40;99.90
23251;DHT22;11794;49.730;10.088;2023-04-06T01:09:28;-0.30;99.90
23251;DHT22;11794;49.730;10.088;2023-04-06T01:11:55;-0.40;99.90
23251;DHT22;11794;49.730;10.088;2023-04-06T01:14:21;-0.40;99.90
23251;DHT22;11794;49.730;10.088;2023-04-06T01:16:47;-0.40;99.90
23251;DHT22;11794;49.730;10.088;2023-04-06T01:19:13;-0.50;99.90
23251;DHT22;11794;49.730;10.088;2023-04-06T01:21:39;-0.60;99.90
23251;DHT22;11794;49.730;10.088;2023-04-06T01:24:06;-0.70;99.90
23251;DHT22;11794;49.730;10.088;2023-04-06T01:26:32;-0.80;99.90
23251;DHT22;11794;49.730;10.088;2023-04-06T01:28:58;-0.80;99.90
23251;DHT22;11794;49.730;10.088;2023-04-06T01:31:24;-0.70;99.90
23251;DHT22;11794;49.730;10.088;2023-04-06T01:33:50;-0.80;99.90
23251;DHT22;11794;49.730;10.088;2023-04-06T01:36:16;-0.70;99.90
23251;DHT22;11794;49.730;10.088;2023-04-06T01:38:41;-0.70;99.90
23251;DHT22;11794;49.730;10.088;2023-04-06T01:41:07;-0.80;99.90
23251;DHT22;11794;49.730;10.088;2023-04-06T01:43:33;-0.80;99.90
23251;DHT22;11794;49.730;10.088;2023-04-06T01:45:59;-0.90;99.90
23251;DHT22;11794;49.730;10.088;2023-04-06T01:48:25;-0.90;99.90
23251;DHT22;11794;49.730;10.088;2023-04-06T01:50:50;-0.90;99.90
23251;DHT22;11794;49.730;10.088;2023-04-06T01:53:16;-0.90;99.90
23251;DHT22;11794;49.730;10.088;2023-04-06T01:55:41;-0.90;99.90
23251;DHT22;11794;49.730;10.088;2023-04-06T01:58:07;-0.90;99.90
23251;DHT22;11794;49.730;10.088;2023-04-06T02:00:33;-0.90;99.90
23251;DHT22;11794;49.730;10.088;2023-04-06T02:02:58;-0.90;99.90
23251;DHT22;11794;49.730;10.088;2023-04-06T02:05:25;-0.80;99.90
23251;DHT22;11794;49.730;10.088;2023-04-06T02:07:51;-0.80;99.90
23251;DHT22;11794;49.730;10.088;2023-04-06T02:10:17;-0.80;99.90
23251;DHT22;11794;49.730;10.088;2023-04-06T02:12:42;-0.80;99.90
23251;DHT22;11794;49.730;10.088;2023-04-06T02:15:08;-0.90;99.90
23251;DHT22;11794;49.730;10.088;2023-04-06T02:17:34;-0.90;99.90
23251;DHT22;11794;49.730;10.088;2023-04-06T02:20:00;-1.00;99.90
23251;DHT22;11794;49.730;10.088;2023-04-06T02:22:25;-1.10;99.90
23251;DHT22;11794;49.730;10.088;2023-04-06T02:24:51;-1.00;99.90
23251;DHT22;11794;49.730;10.088;2023-04-06T02:27:16;-1.00;99.90
23251;DHT22;11794;49.730;10.088;2023-04-06T02:29:41;-1.10;99.90
23251;DHT22;11794;49.730;10.088;2023-04-06T02:32:07;-1.00;99.90
23251;DHT22;11794;49.730;10.088;2023-04-06T02:34:33;-1.00;99.90
23251;DHT22;11794;49.730;10.088;2023-04-06T02:36:58;-0.90;99.90
23251;DHT22;11794;49.730;10.088;2023-04-06T02:39:24;-1.00;99.90
23251;DHT22;11794;49.730;10.088;2023-04-06T02:41:49;-1.00;99.90
23251;DHT22;11794;49.730;10.088;2023-04-06T02:44:15;-1.10;99.90
23251;DHT22;11794;49.730;10.088;2023-04-06T02:46:40;-1.10;99.90
23251;DHT22;11794;49.730;10.088;2023-04-06T02:49:06;-1.20;99.90
23251;DHT22;11794;49.730;10.088;2023-04-06T02:51:31;-1.30;99.90
23251;DHT22;11794;49.730;10.088;2023-04-06T02:53:57;-1.30;99.90
23251;DHT22;11794;49.730;10.088;2023-04-06T02:56:22;-1.20;99.90
23251;DHT22;11794;49.730;10.088;2023-04-06T02:58:48;-1.30;99.90
23251;DHT22;11794;49.730;10.088;2023-04-06T03:01:13;-1.30;99.90
23251;DHT22;11794;49.730;10.088;2023-04-06T03:03:40;-1.30;99.90
23251;DHT22;11794;49.730;10.088;2023-04-06T03:06:05;-1.40;99.90
23251;DHT22;11794;49.730;10.088;2023-04-06T03:08:31;-1.40;99.90
23251;DHT22;11794;49.730;10.088;2023-04-06T03:10:56;-1.30;99.90
23251;DHT22;11794;49.730;10.088;2023-04-06T03:13:22;-1.40;99.90
23251;DHT22;11794;49.730;10.088;2023-04-06T03:15:47;-1.30;99.90
23251;DHT22;11794;49.730;10.088;2023-04-06T03:18:13;-1.40;99.90
23251;DHT22;11794;49.730;10.088;2023-04-06T03:20:38;-1.50;99.90
23251;DHT22;11794;49.730;10.088;2023-04-06T03:23:04;-1.60;99.90
23251;DHT22;11794;49.730;10.088;2023-04-06T03:25:30;-1.70;99.90
23251;DHT22;11794;49.730;10.088;2023-04-06T03:27:55;-1.70;99.90
23251;DHT22;11794;49.730;10.088;2023-04-06T03:30:21;-1.60;99.90
23251;DHT22;11794;49.730;10.088;2023-04-06T03:32:47;-1.70;99.90
23251;DHT22;11794;49.730;10.088;2023-04-06T03:35:12;-1.70;99.90
23251;DHT22;11794;49.730;10.088;2023-04-06T03:37:38;-1.90;99.90
23251;DHT22;11794;49.730;10.088;2023-04-06T03:40:04;-1.90;99.90
23251;DHT22;11794;49.730;10.088;2023-04-06T03:42:30;-1.80;99.90
23251;DHT22;11794;49.730;10.088;2023-04-06T03:44:56;-1.80;99.90
23251;DHT22;11794;49.730;10.088;2023-04-06T03:47:22;-1.80;99.90
23251;DHT22;11794;49.730;10.088;2023-04-06T03:49:47;-1.70;99.90
23251;DHT22;11794;49.730;10.088;2023-04-06T03:52:13;-1.70;99.90
23251;DHT22;11794;49.730;10.088;2023-04-06T03:54:38;-1.70;99.90
23251;DHT22;11794;49.730;10.088;2023-04-06T03:57:04;-1.60;99.90
23251;DHT22;11794;49.730;10.088;2023-04-06T03:59:29;-1.60;99.90
23251;DHT22;11794;49.730;10.088;2023-04-06T04:01:55;-1.60;99.90
23251;DHT22;11794;49.730;10.088;2023-04-06T04:04:21;-1.70;99.90
23251;DHT22;11794;49.730;10.088;2023-04-06T04:06:46;-1.70;99.90
23251;DHT22;11794;49.730;10.088;2023-04-06T04:09:12;-1.80;99.90
23251;DHT22;11794;49.730;10.088;2023-04-06T04:11:37;-1.70;99.90
23251;DHT22;11794;49.730;10.088;2023-04-06T04:14:03;-1.80;99.90
23251;DHT22;11794;49.730;10.088;2023-04-06T04:16:29;-1.80;99.90
23251;DHT22;11794;49.730;10.088;2023-04-06T04:18:54;-2.00;99.90
23251;DHT22;11794;49.730;10.088;2023-04-06T04:21:20;-2.00;99.90
23251;DHT22;11794;49.730;10.088;2023-04-06T04:23:45;-2.00;99.90
23251;DHT22;11794;49.730;10.088;2023-04-06T04:26:11;-2.10;99.90
23251;DHT22;11794;49.730;10.088;2023-04-06T04:28:36;-2.20;99.90
23251;DHT22;11794;49.730;10.088;2023-04-06T04:31:02;-2.20;99.90
23251;DHT22;11794;49.730;10.088;2023-04-06T04:33:27;-2.20;99.90
23251;DHT22;11794;49.730;10.088;2023-04-06T04:35:53;-2.10;99.90
23251;DHT22;11794;49.730;10.088;2023-04-06T04:38:18;-2.10;99.90
23251;DHT22;11794;49.730;10.088;2023-04-06T04:40:44;-2.10;99.90
23251;DHT22;11794;49.730;10.088;2023-04-06T04:43:10;-2.00;99.90
23251;DHT22;11794;49.730;10.088;2023-04-06T04:45:36;-1.90;99.90
23251;DHT22;11794;49.730;10.088;2023-04-06T04:48:01;-1.90;99.90
23251;DHT22;11794;49.730;10.088;2023-04-06T04:50:27;-1.90;99.90
23251;DHT22;11794;49.730;10.088;2023-04-06T04:52:52;-1.90;99.90
23251;DHT22;11794;49.730;10.088;2023-04-06T04:55:18;-1.90;99.90
23251;DHT22;11794;49.730;10.088;2023-04-06T04:57:43;-1.90;99.90
23251;DHT22;11794;49.730;10.088;2023-04-06T05:00:09;-2.00;99.90
23251;DHT22;11794;49.730;10.088;2023-04-06T05:02:35;-2.00;99.90
23251;DHT22;11794;49.730;10.088;2023-04-06T05:05:00;-2.00;99.90
23251;DHT22;11794;49.730;10.088;2023-04-06T05:07:26;-2.00;99.90
23251;DHT22;11794;49.730;10.088;2023-04-06T05:09:52;-2.00;99.90
23251;DHT22;11794;49.730;10.088;2023-04-06T05:12:19;-1.90;99.90
23251;DHT22;11794;49.730;10.088;2023-04-06T05:14:44;-1.90;99.90
23251;DHT22;11794;49.730;10.088;2023-04-06T05:17:10;-1.90;99.90
23251;DHT22;11794;49.730;10.088;2023-04-06T05:19:36;-1.90;99.90
23251;DHT22;11794;49.730;10.088;2023-04-06T05:22:01;-1.80;99.90
23251;DHT22;11794;49.730;10.088;2023-04-06T05:24:27;-1.70;99.90
23251;DHT22;11794;49.730;10.088;2023-04-06T05:26:53;-1.60;99.90
23251;DHT22;11794;49.730;10.088;2023-04-06T05:29:18;-1.40;99.90
23251;DHT22;11794;49.730;10.088;2023-04-06T05:31:44;-1.30;99.90
23251;DHT22;11794;49.730;10.088;2023-04-06T05:34:09;-1.20;99.90
23251;DHT22;11794;49.730;10.088;2023-04-06T05:36:35;-0.90;99.90
23251;DHT22;11794;49.730;10.088;2023-04-06T05:39:01;-0.70;99.90
23251;DHT22;11794;49.730;10.088;2023-04-06T05:41:27;-0.40;99.90
23251;DHT22;11794;49.730;10.088;2023-04-06T05:43:52;-0.10;99.90
23251;DHT22;11794;49.730;10.088;2023-04-06T05:46:18;0.00;99.90
23251;DHT22;11794;49.730;10.088;2023-04-06T05:48:43;0.20;99.90
23251;DHT22;11794;49.730;10.088;2023-04-06T05:51:10;0.30;99.90
23251;DHT22;11794;49.730;10.088;2023-04-06T05:53:35;0.50;99.90
23251;DHT22;11794;49.730;10.088;2023-04-06T05:56:02;0.70;99.90
23251;DHT22;11794;49.730;10.088;2023-04-06T05:58:28;0.90;99.90
23251;DHT22;11794;49.730;10.088;2023-04-06T06:01:00;1.20;99.90
23251;DHT22;11794;49.730;10.088;2023-04-06T06:03:26;1.30;99.90
23251;DHT22;11794;49.730;10.088;2023-04-06T06:05:52;1.40;99.90
23251;DHT22;11794;49.730;10.088;2023-04-06T06:08:17;1.70;99.90
23251;DHT22;11794;49.730;10.088;2023-04-06T06:10:43;2.10;99.90
23251;DHT22;11794;49.730;10.088;2023-04-06T06:13:08;2.50;99.90
23251;DHT22;11794;49.730;10.088;2023-04-06T06:15:34;3.20;99.90
23251;DHT22;11794;49.730;10.088;2023-04-06T06:18:00;3.60;99.90
23251;DHT22;11794;49.730;10.088;2023-04-06T06:20:26;3.90;99.90
23251;DHT22;11794;49.730;10.088;2023-04-06T06:22:52;3.80;99.90
23251;DHT22;11794;49.730;10.088;2023-04-06T06:25:18;3.90;99.90
23251;DHT22;11794;49.730;10.088;2023-04-06T06:27:43;4.10;99.90
23251;DHT22;11794;49.730;10.088;2023-04-06T06:30:09;3.80;99.90
23251;DHT22;11794;49.730;10.088;2023-04-06T06:32:35;3.30;99.90
23251;DHT22;11794;49.730;10.088;2023-04-06T06:35:00;2.80;99.90
23251;DHT22;11794;49.730;10.088;2023-04-06T06:37:26;2.50;99.90
23251;DHT22;11794;49.730;10.088;2023-04-06T06:39:51;2.50;99.90
23251;DHT22;11794;49.730;10.088;2023-04-06T06:42:17;2.60;99.90
23251;DHT22;11794;49.730;10.088;2023-04-06T06:44:42;2.50;99.90
23251;DHT22;11794;49.730;10.088;2023-04-06T06:47:08;2.60;99.90
23251;DHT22;11794;49.730;10.088;2023-04-06T06:49:33;2.60;99.90
23251;DHT22;11794;49.730;10.088;2023-04-06T06:51:59;3.00;99.90
23251;DHT22;11794;49.730;10.088;2023-04-06T06:54:24;3.20;99.90
23251;DHT22;11794;49.730;10.088;2023-04-06T06:56:50;3.40;99.90
23251;DHT22;11794;49.730;10.088;2023-04-06T06:59:15;3.30;99.90
23251;DHT22;11794;49.730;10.088;2023-04-06T07:01:42;3.40;99.90
23251;DHT22;11794;49.730;10.088;2023-04-06T07:04:07;3.50;99.90
23251;DHT22;11794;49.730;10.088;2023-04-06T07:06:35;3.50;99.90
23251;DHT22;11794;49.730;10.088;2023-04-06T07:09:01;3.80;99.90
23251;DHT22;11794;49.730;10.088;2023-04-06T07:11:28;4.00;99.90
23251;DHT22;11794;49.730;10.088;2023-04-06T07:13:54;4.00;99.90
23251;DHT22;11794;49.730;10.088;2023-04-06T07:16:19;4.10;99.90
23251;DHT22;11794;49.730;10.088;2023-04-06T07:18:45;4.20;99.90
23251;DHT22;11794;49.730;10.088;2023-04-06T07:21:11;4.30;99.90
23251;DHT22;11794;49.730;10.088;2023-04-06T07:23:37;4.40;99.90
23251;DHT22;11794;49.730;10.088;2023-04-06T07:26:02;4.80;99.90
23251;DHT22;11794;49.730;10.088;2023-04-06T07:28:28;5.10;99.90
23251;DHT22;11794;49.730;10.088;2023-04-06T07:30:53;5.40;99.90
23251;DHT22;11794;49.730;10.088;2023-04-06T07:33:20;5.50;99.90
23251;DHT22;11794;49.730;10.088;2023-04-06T07:35:45;5.80;99.90
23251;DHT22;11794;49.730;10.088;2023-04-06T07:38:11;6.00;99.90
23251;DHT22;11794;49.730;10.088;2023-04-06T07:40:37;5.80;99.90
23251;DHT22;11794;49.730;10.088;2023-04-06T07:43:03;5.70;99.90
23251;DHT22;11794;49.730;10.088;2023-04-06T07:45:29;6.10;99.90
23251;DHT22;11794;49.730;10.088;2023-04-06T07:47:54;6.20;99.90
23251;DHT22;11794;49.730;10.088;2023-04-06T07:50:20;6.60;99.90
23251;DHT22;11794;49.730;10.088;2023-04-06T07:52:45;7.00;99.90
23251;DHT22;11794;49.730;10.088;2023-04-06T07:55:11;7.00;99.90
23251;DHT22;11794;49.730;10.088;2023-04-06T07:57:37;7.10;99.90
23251;DHT22;11794;49.730;10.088;2023-04-06T08:00:03;7.60;99.90
23251;DHT22;11794;49.730;10.088;2023-04-06T08:02:30;7.70;99.90
23251;DHT22;11794;49.730;10.088;2023-04-06T08:04:56;8.30;99.90
23251;DHT22;11794;49.730;10.088;2023-04-06T08:07:22;8.80;99.90
23251;DHT22;11794;49.730;10.088;2023-04-06T08:09:47;9.20;99.90
23251;DHT22;11794;49.730;10.088;2023-04-06T08:12:13;9.60;99.90
23251;DHT22;11794;49.730;10.088;2023-04-06T08:14:39;9.70;99.90
23251;DHT22;11794;49.730;10.088;2023-04-06T08:17:04;9.80;99.90
23251;DHT22;11794;49.730;10.088;2023-04-06T08:19:30;10.10;99.90
23251;DHT22;11794;49.730;10.088;2023-04-06T08:21:55;10.30;99.90
23251;DHT22;11794;49.730;10.088;2023-04-06T08:24:21;10.70;99.30
23251;DHT22;11794;49.730;10.088;2023-04-06T08:26:46;10.80;98.60
23251;DHT22;11794;49.730;10.088;2023-04-06T08:29:12;10.90;99.90
23251;DHT22;11794;49.730;10.088;2023-04-06T08:31:38;11.60;98.80
23251;DHT22;11794;49.730;10.088;2023-04-06T08:34:04;12.30;97.90
23251;DHT22;11794;49.730;10.088;2023-04-06T08:36:30;13.00;95.70
23251;DHT22;11794;49.730;10.088;2023-04-06T08:38:56;13.00;94.90
23251;DHT22;11794;49.730;10.088;2023-04-06T08:41:22;13.00;94.30
23251;DHT22;11794;49.730;10.088;2023-04-06T08:43:51;12.60;94.30
23251;DHT22;11794;49.730;10.088;2023-04-06T08:46:18;12.10;94.90
23251;DHT22;11794;49.730;10.088;2023-04-06T08:48:44;12.10;95.30
23251;DHT22;11794;49.730;10.088;2023-04-06T08:51:11;12.00;95.50
23251;DHT22;11794;49.730;10.088;2023-04-06T08:53:37;11.40;95.90
23251;DHT22;11794;49.730;10.088;2023-04-06T08:56:03;11.60;94.80
23251;DHT22;11794;49.730;10.088;2023-04-06T08:58:35;12.00;94.50
23251;DHT22;11794;49.730;10.088;2023-04-06T09:01:06;12.20;94.60
23251;DHT22;11794;49.730;10.088;2023-04-06T09:03:39;12.50;93.50
23251;DHT22;11794;49.730;10.088;2023-04-06T09:06:06;12.40;94.10
23251;DHT22;11794;49.730;10.088;2023-04-06T09:08:38;12.50;93.60
23251;DHT22;11794;49.730;10.088;2023-04-06T09:11:04;12.30;93.70
23251;DHT22;11794;49.730;10.088;2023-04-06T09:13:30;12.50;93.60
23251;DHT22;11794;49.730;10.088;2023-04-06T09:16:03;12.80;93.70
23251;DHT22;11794;49.730;10.088;2023-04-06T09:18:33;12.70;93.90
23251;DHT22;11794;49.730;10.088;2023-04-06T09:21:02;13.30;94.20
23251;DHT22;11794;49.730;10.088;2023-04-06T09:23:28;13.50;93.10
23251;DHT22;11794;49.730;10.088;2023-04-06T09:26:12;13.80;92.40
23251;DHT22;11794;49.730;10.088;2023-04-06T09:31:11;14.50;91.10
23251;DHT22;11794;49.730;10.088;2023-04-06T09:33:45;14.20;90.90
23251;DHT22;11794;49.730;10.088;2023-04-06T09:36:11;14.20;90.60
23251;DHT22;11794;49.730;10.088;2023-04-06T09:38:38;14.50;90.00
23251;DHT22;11794;49.730;10.088;2023-04-06T09:41:04;14.20;89.70
23251;DHT22;11794;49.730;10.088;2023-04-06T09:43:30;14.10;88.30
23251;DHT22;11794;49.730;10.088;2023-04-06T09:45:56;14.40;90.30
23251;DHT22;11794;49.730;10.088;2023-04-06T09:48:22;14.30;90.30
23251;DHT22;11794;49.730;10.088;2023-04-06T09:50:50;14.40;86.70
23251;DHT22;11794;49.730;10.088;2023-04-06T09:53:21;14.30;85.20
23251;DHT22;11794;49.730;10.088;2023-04-06T09:55:51;14.10;85.30
23251;DHT22;11794;49.730;10.088;2023-04-06T09:58:19;14.60;87.60
23251;DHT22;11794;49.730;10.088;2023-04-06T10:01:01;15.20;89.80
23251;DHT22;11794;49.730;10.088;2023-04-06T10:06:13;16.60;84.60
23251;DHT22;11794;49.730;10.088;2023-04-06T10:08:40;17.10;84.80
23251;DHT22;11794;49.730;10.088;2023-04-06T10:11:10;17.10;79.60
23251;DHT22;11794;49.730;10.088;2023-04-06T10:13:36;16.80;83.00
23251;DHT22;11794;49.730;10.088;2023-04-06T10:16:02;16.80;81.40
23251;DHT22;11794;49.730;10.088;2023-04-06T10:18:29;17.00;78.50
23251;DHT22;11794;49.730;10.088;2023-04-06T10:20:57;17.00;77.80
23251;DHT22;11794;49.730;10.088;2023-04-06T10:24:08;16.90;73.70
23251;DHT22;11794;49.730;10.088;2023-04-06T10:26:35;16.40;77.50
23251;DHT22;11794;49.730;10.088;2023-04-06T10:29:03;16.30;76.40
23251;DHT22;11794;49.730;10.088;2023-04-06T10:31:29;16.10;76.60
23251;DHT22;11794;49.730;10.088;2023-04-06T10:34:01;16.20;76.70
23251;DHT22;11794;49.730;10.088;2023-04-06T10:36:32;16.40;77.80
23251;DHT22;11794;49.730;10.088;2023-04-06T10:39:03;16.20;75.20
23251;DHT22;11794;49.730;10.088;2023-04-06T10:41:33;15.90;75.40
23251;DHT22;11794;49.730;10.088;2023-04-06T10:43:59;16.40;77.80
23251;DHT22;11794;49.730;10.088;2023-04-06T10:46:27;17.10;76.20
23251;DHT22;11794;49.730;10.088;2023-04-06T10:48:53;16.60;73.40
23251;DHT22;11794;49.730;10.088;2023-04-06T10:51:19;16.80;75.60
23251;DHT22;11794;49.730;10.088;2023-04-06T10:53:49;17.00;73.70
23251;DHT22;11794;49.730;10.088;2023-04-06T10:56:17;17.50;72.90
23251;DHT22;11794;49.730;10.088;2023-04-06T10:58:54;17.70;73.20
23251;DHT22;11794;49.730;10.088;2023-04-06T11:01:22;18.20;73.90
23251;DHT22;11794;49.730;10.088;2023-04-06T11:03:49;18.30;69.80
23251;DHT22;11794;49.730;10.088;2023-04-06T11:06:22;17.70;70.20
23251;DHT22;11794;49.730;10.088;2023-04-06T11:08:48;17.40;70.10
23251;DHT22;11794;49.730;10.088;2023-04-06T11:11:15;17.60;69.90
23251;DHT22;11794;49.730;10.088;2023-04-06T11:13:52;16.90;68.60
23251;DHT22;11794;49.730;10.088;2023-04-06T11:19:07;16.80;72.10
23251;DHT22;11794;49.730;10.088;2023-04-06T11:21:38;17.20;70.00
23251;DHT22;11794;49.730;10.088;2023-04-06T11:24:12;17.20;67.40
23251;DHT22;11794;49.730;10.088;2023-04-06T11:29:16;18.10;68.70
23251;DHT22;11794;49.730;10.088;2023-04-06T11:31:49;18.10;71.10
23251;DHT22;11794;49.730;10.088;2023-04-06T11:34:22;18.50;70.30
23251;DHT22;11794;49.730;10.088;2023-04-06T11:36:53;18.40;69.80
23251;DHT22;11794;49.730;10.088;2023-04-06T11:39:22;18.00;70.30
23251;DHT22;11794;49.730;10.088;2023-04-06T11:41:53;18.00;71.10
23251;DHT22;11794;49.730;10.088;2023-04-06T11:47:04;18.60;68.60
23251;DHT22;11794;49.730;10.088;2023-04-06T11:49:31;18.90;68.50
23251;DHT22;11794;49.730;10.088;2023-04-06T11:51:58;18.90;66.40
23251;DHT22;11794;49.730;10.088;2023-04-06T11:56:56;19.30;68.20
23251;DHT22;11794;49.730;10.088;2023-04-06T11:59:22;19.80;65.20
23251;DHT22;11794;49.730;10.088;2023-04-06T12:01:48;20.20;65.30
23251;DHT22;11794;49.730;10.088;2023-04-06T12:04:14;20.60;64.60
23251;DHT22;11794;49.730;10.088;2023-04-06T12:06:40;20.60;64.90
23251;DHT22;11794;49.730;10.088;2023-04-06T12:09:05;21.20;61.90
23251;DHT22;11794;49.730;10.088;2023-04-06T12:11:31;21.40;61.80
23251;DHT22;11794;49.730;10.088;2023-04-06T12:13:56;20.50;59.10
23251;DHT22;11794;49.730;10.088;2023-04-06T12:16:22;18.70;61.90
23251;DHT22;11794;49.730;10.088;2023-04-06T12:18:47;18.70;62.50
23251;DHT22;11794;49.730;10.088;2023-04-06T12:21:13;19.90;60.80
23251;DHT22;11794;49.730;10.088;2023-04-06T12:23:39;21.10;60.30
23251;DHT22;11794;49.730;10.088;2023-04-06T12:26:04;21.50;59.10
23251;DHT22;11794;49.730;10.088;2023-04-06T12:28:30;21.90;57.30
23251;DHT22;11794;49.730;10.088;2023-04-06T12:30:56;21.80;57.60
23251;DHT22;11794;49.730;10.088;2023-04-06T12:33:21;21.10;58.70
23251;DHT22;11794;49.730;10.088;2023-04-06T12:35:47;20.80;57.70
23251;DHT22;11794;49.730;10.088;2023-04-06T12:38:12;20.90;56.80
23251;DHT22;11794;49.730;10.088;2023-04-06T12:40:38;20.70;57.30
23251;DHT22;11794;49.730;10.088;2023-04-06T12:43:05;21.50;57.90
23251;DHT22;11794;49.730;10.088;2023-04-06T12:45:31;20.30;56.80
23251;DHT22;11794;49.730;10.088;2023-04-06T12:47:57;18.10;59.00
23251;DHT22;11794;49.730;10.088;2023-04-06T12:50:22;17.10;61.20
23251;DHT22;11794;49.730;10.088;2023-04-06T12:52:48;17.40;62.00
23251;DHT22;11794;49.730;10.088;2023-04-06T12:55:13;18.80;59.40
23251;DHT22;11794;49.730;10.088;2023-04-06T12:57:39;20.30;58.30
23251;DHT22;11794;49.730;10.088;2023-04-06T13:00:05;21.20;57.00
23251;DHT22;11794;49.730;10.088;2023-04-06T13:02:31;21.50;57.00
23251;DHT22;11794;49.730;10.088;2023-04-06T13:04:57;21.50;55.30
23251;DHT22;11794;49.730;10.088;2023-04-06T13:07:22;21.90;56.90
23251;DHT22;11794;49.730;10.088;2023-04-06T13:09:48;21.80;58.90
23251;DHT22;11794;49.730;10.088;2023-04-06T13:12:15;21.40;56.00
23251;DHT22;11794;49.730;10.088;2023-04-06T13:14:41;19.50;58.20
23251;DHT22;11794;49.730;10.088;2023-04-06T13:17:06;20.50;56.80
23251;DHT22;11794;49.730;10.088;2023-04-06T13:19:32;20.80;58.30
23251;DHT22;11794;49.730;10.088;2023-04-06T13:21:58;21.90;56.10
23251;DHT22;11794;49.730;10.088;2023-04-06T13:24:23;22.80;53.60
23251;DHT22;11794;49.730;10.088;2023-04-06T13:26:49;23.60;54.80
23251;DHT22;11794;49.730;10.088;2023-04-06T13:29:15;24.50;51.70
23251;DHT22;11794;49.730;10.088;2023-04-06T13:31:41;23.40;52.20
23251;DHT22;11794;49.730;10.088;2023-04-06T13:34:06;22.60;53.40
23251;DHT22;11794;49.730;10.088;2023-04-06T13:36:32;23.40;52.70
23251;DHT22;11794;49.730;10.088;2023-04-06T13:38:58;23.00;51.40
23251;DHT22;11794;49.730;10.088;2023-04-06T13:41:24;22.10;52.70
23251;DHT22;11794;49.730;10.088;2023-04-06T13:43:50;21.80;54.00
23251;DHT22;11794;49.730;10.088;2023-04-06T13:46:16;20.60;53.40
23251;DHT22;11794;49.730;10.088;2023-04-06T13:48:43;20.70;53.40
23251;DHT22;11794;49.730;10.088;2023-04-06T13:51:12;20.70;54.10
23251;DHT22;11794;49.730;10.088;2023-04-06T13:53:38;20.50;53.80
23251;DHT22;11794;49.730;10.088;2023-04-06T13:56:05;21.60;54.70
23251;DHT22;11794;49.730;10.088;2023-04-06T13:58:30;21.90;52.40
23251;DHT22;11794;49.730;10.088;2023-04-06T14:01:05;19.90;54.60
23251;DHT22;11794;49.730;10.088;2023-04-06T14:03:32;18.70;56.20
23251;DHT22;11794;49.730;10.088;2023-04-06T14:05:57;20.10;56.20
23251;DHT22;11794;49.730;10.088;2023-04-06T14:08:23;21.50;55.30
23251;DHT22;11794;49.730;10.088;2023-04-06T14:10:48;22.60;52.00
23251;DHT22;11794;49.730;10.088;2023-04-06T14:13:14;21.20;53.50
23251;DHT22;11794;49.730;10.088;2023-04-06T14:15:41;20.60;54.30
23251;DHT22;11794;49.730;10.088;2023-04-06T14:18:08;19.40;55.70
23251;DHT22;11794;49.730;10.088;2023-04-06T14:20:33;18.70;54.90
23251;DHT22;11794;49.730;10.088;2023-04-06T14:23:02;18.70;54.80
23251;DHT22;11794;49.730;10.088;2023-04-06T14:25:28;19.40;54.50
23251;DHT22;11794;49.730;10.088;2023-04-06T14:27:56;19.70;54.60
23251;DHT22;11794;49.730;10.088;2023-04-06T14:30:22;20.30;54.80
23251;DHT22;11794;49.730;10.088;2023-04-06T14:32:48;20.70;55.20
23251;DHT22;11794;49.730;10.088;2023-04-06T14:35:13;21.50;53.60
23251;DHT22;11794;49.730;10.088;2023-04-06T14:37:39;21.70;53.30
23251;DHT22;11794;49.730;10.088;2023-04-06T14:40:05;22.60;52.60
23251;DHT22;11794;49.730;10.088;2023-04-06T14:42:30;22.50;52.30
23251;DHT22;11794;49.730;10.088;2023-04-06T14:44:57;21.00;52.60
23251;DHT22;11794;49.730;10.088;2023-04-06T14:47:22;20.80;54.20
23251;DHT22;11794;49.730;10.088;2023-04-06T14:49:51;21.40;53.50
23251;DHT22;11794;49.730;10.088;2023-04-06T14:52:17;21.40;52.80
23251;DHT22;11794;49.730;10.088;2023-04-06T14:54:42;20.70;52.30
23251;DHT22;11794;49.730;10.088;2023-04-06T14:57:08;19.60;53.40
23251;DHT22;11794;49.730;10.088;2023-04-06T14:59:33;19.20;53.90
23251;DHT22;11794;49.730;10.088;2023-04-06T15:01:59;19.70;54.40
23251;DHT22;11794;49.730;10.088;2023-04-06T15:04:28;19.80;54.80
23251;DHT22;11794;49.730;10.088;2023-04-06T15:06:54;19.20;55.20
23251;DHT22;11794;49.730;10.088;2023-04-06T15:09:19;18.60;56.80
23251;DHT22;11794;49.730;10.088;2023-04-06T15:11:45;18.10;57.10
23251;DHT22;11794;49.730;10.088;2023-04-06T15:14:10;17.80;58.20
23251;DHT22;11794;49.730;10.088;2023-04-06T15:16:36;16.90;59.30
23251;DHT22;11794;49.730;10.088;2023-04-06T15:19:01;16.30;59.30
23251;DHT22;11794;49.730;10.088;2023-04-06T15:21:27;15.90;60.50
23251;DHT22;11794;49.730;10.088;2023-04-06T15:23:53;15.60;63.60
23251;DHT22;11794;49.730;10.088;2023-04-06T15:26:19;15.70;62.40
23251;DHT22;11794;49.730;10.088;2023-04-06T15:28:45;15.80;60.00
23251;DHT22;11794;49.730;10.088;2023-04-06T15:31:15;15.50;60.80